createdAt,value
2018-10-12T00:00:48.491Z,1015.37
2018-10-12T00:01:49.140Z,1015.35
2018-10-12T00:02:48.387Z,1015.37
2018-10-12T00:03:49.108Z,1015.38
2018-10-12T00:04:49.108Z,1015.37
2018-10-12T00:05:48.350Z,1015.33
2018-10-12T00:06:49.159Z,1015.37
2018-10-12T00:07:49.111Z,1015.31
2018-10-12T00:08:49.116Z,1015.35
2018-10-12T00:09:49.109Z,1015.33
2018-10-12T00:10:48.244Z,1015.30
2018-10-12T00:11:49.105Z,1015.31
2018-10-12T00:12:48.614Z,1015.30
2018-10-12T00:13:48.662Z,1015.32
2018-10-12T00:14:48.052Z,1015.32
2018-10-12T00:15:48.641Z,1015.35
2018-10-12T00:16:48.615Z,1015.34
2018-10-12T00:17:48.560Z,1015.42
2018-10-12T00:18:48.681Z,1015.39
2018-10-12T00:19:48.607Z,1015.43
2018-10-12T00:20:48.617Z,1015.44
2018-10-12T00:21:48.011Z,1015.43
2018-10-12T00:22:48.609Z,1015.49
2018-10-12T00:23:48.615Z,1015.49
2018-10-12T00:24:48.689Z,1015.51
2018-10-12T00:25:47.744Z,1015.52
2018-10-12T00:26:47.838Z,1015.50
2018-10-12T00:27:47.702Z,1015.51
2018-10-12T00:28:47.799Z,1015.52
2018-10-12T00:29:48.518Z,1015.50
2018-10-12T00:30:48.110Z,1015.52
2018-10-12T00:31:48.112Z,1015.46
2018-10-12T00:32:48.521Z,1015.49
2018-10-12T00:33:48.112Z,1015.48
2018-10-12T00:34:47.569Z,1015.53
2018-10-12T00:35:47.669Z,1015.51
2018-10-12T00:36:48.125Z,1015.48
2018-10-12T00:37:47.449Z,1015.51
2018-10-12T00:38:47.425Z,1015.51
2018-10-12T00:39:47.352Z,1015.53
2018-10-12T00:40:48.116Z,1015.58
2018-10-12T00:41:47.680Z,1015.58
2018-10-12T00:42:48.113Z,1015.59
2018-10-12T00:43:47.248Z,1015.64
2018-10-12T00:44:48.111Z,1015.64
2018-10-12T00:45:47.185Z,1015.64
2018-10-12T00:46:47.193Z,1015.62
2018-10-12T00:47:48.113Z,1015.61
2018-10-12T00:48:47.170Z,1015.65
2018-10-12T00:49:47.127Z,1015.60
2018-10-12T00:50:47.049Z,1015.61
2018-10-12T00:51:47.067Z,1015.61
2018-10-12T00:52:47.011Z,1015.66
2018-10-12T00:53:47.178Z,1015.60
2018-10-12T00:54:46.930Z,1015.64
2018-10-12T00:55:47.615Z,1015.59
2018-10-12T00:56:47.614Z,1015.65
2018-10-12T00:57:47.615Z,1015.59
2018-10-12T00:58:46.863Z,1015.61
2018-10-12T00:59:47.701Z,1015.60
2018-10-12T01:00:46.789Z,1015.60
2018-10-12T01:01:46.782Z,1015.62
2018-10-12T01:02:47.613Z,1015.57
2018-10-12T01:03:47.178Z,1015.58
2018-10-12T01:04:47.619Z,1015.56
2018-10-12T01:05:47.618Z,1015.58
2018-10-12T01:06:47.152Z,1015.59
2018-10-12T01:07:46.568Z,1015.57
2018-10-12T01:08:46.691Z,1015.61
2018-10-12T01:09:46.510Z,1015.57
2018-10-12T01:10:47.157Z,1015.59
2018-10-12T01:11:47.129Z,1015.57
2018-10-12T01:12:46.680Z,1015.55
2018-10-12T01:13:46.402Z,1015.57
2018-10-12T01:14:46.405Z,1015.53
2018-10-12T01:15:46.411Z,1015.57
2018-10-12T01:16:46.313Z,1015.55
2018-10-12T01:17:46.283Z,1015.54
2018-10-12T01:18:47.201Z,1015.55
2018-10-12T01:19:47.136Z,1015.53
2018-10-12T01:20:46.235Z,1015.56
2018-10-12T01:21:47.130Z,1015.55
2018-10-12T01:22:47.121Z,1015.53
2018-10-12T01:23:46.659Z,1015.56
2018-10-12T01:24:46.625Z,1015.56
2018-10-12T01:25:46.175Z,1015.55
2018-10-12T01:26:46.174Z,1015.57
2018-10-12T01:27:46.006Z,1015.60
2018-10-12T01:28:45.970Z,1015.63
2018-10-12T01:29:46.625Z,1015.67
2018-10-12T01:30:45.915Z,1015.72
2018-10-12T01:31:45.944Z,1015.78
2018-10-12T01:32:46.628Z,1015.78
2018-10-12T01:33:46.629Z,1015.80
2018-10-12T01:34:46.624Z,1015.82
2018-10-12T01:35:46.680Z,1015.83
2018-10-12T01:36:46.626Z,1015.78
2018-10-12T01:37:46.621Z,1015.80
2018-10-12T01:38:46.623Z,1015.77
2018-10-12T01:39:46.181Z,1015.79
2018-10-12T01:40:45.628Z,1015.76
2018-10-12T01:41:46.121Z,1015.77
2018-10-12T01:42:45.622Z,1015.78
2018-10-12T01:43:45.549Z,1015.76
2018-10-12T01:44:45.516Z,1015.77
2018-10-12T01:45:45.687Z,1015.77
2018-10-12T01:46:45.459Z,1015.81
2018-10-12T01:47:48.124Z,1015.79
2018-10-12T01:48:45.417Z,1015.81
2018-10-12T01:49:46.130Z,1015.82
2018-10-12T01:50:45.380Z,1015.82
2018-10-12T01:51:46.133Z,1015.79
2018-10-12T01:52:45.288Z,1015.80
2018-10-12T01:53:46.123Z,1015.84
2018-10-12T01:54:46.133Z,1015.85
2018-10-12T01:55:45.267Z,1015.83
2018-10-12T01:56:45.180Z,1015.84
2018-10-12T01:57:46.133Z,1015.86
2018-10-12T01:58:45.124Z,1015.88
2018-10-12T01:59:45.630Z,1015.90
2018-10-12T02:00:45.186Z,1015.91
2018-10-12T02:01:45.037Z,1015.91
2018-10-12T02:02:45.074Z,1015.91
2018-10-12T02:03:44.993Z,1015.95
2018-10-12T02:04:44.996Z,1015.93
2018-10-12T02:05:44.922Z,1015.93
2018-10-12T02:06:44.895Z,1015.94
2018-10-12T02:07:44.993Z,1015.94
2018-10-12T02:08:44.840Z,1015.92
2018-10-12T02:09:46.631Z,1015.91
2018-10-12T02:10:44.817Z,1015.96
2018-10-12T02:11:44.750Z,1015.95
2018-10-12T02:12:44.725Z,1015.91
2018-10-12T02:13:44.699Z,1015.88
2018-10-12T02:14:45.637Z,1015.90
2018-10-12T02:15:44.687Z,1015.91
2018-10-12T02:16:45.137Z,1015.92
2018-10-12T02:17:44.667Z,1015.91
2018-10-12T02:18:44.555Z,1015.92
2018-10-12T02:19:45.128Z,1015.88
2018-10-12T02:20:44.550Z,1015.90
2018-10-12T02:21:44.465Z,1015.90
2018-10-12T02:22:44.437Z,1015.93
2018-10-12T02:23:44.412Z,1015.88
2018-10-12T02:24:45.135Z,1015.92
2018-10-12T02:25:44.396Z,1015.92
2018-10-12T02:26:44.320Z,1015.94
2018-10-12T02:27:44.296Z,1015.95
2018-10-12T02:28:44.265Z,1016.00
2018-10-12T02:29:44.238Z,1016.01
2018-10-12T02:30:44.697Z,1016.01
2018-10-12T02:31:44.186Z,1016.05
2018-10-12T02:32:44.156Z,1016.01
2018-10-12T02:33:44.641Z,1015.99
2018-10-12T02:34:44.639Z,1016.00
2018-10-12T02:35:44.195Z,1016.01
2018-10-12T02:36:44.046Z,1016.02
2018-10-12T02:37:44.010Z,1016.06
2018-10-12T02:38:43.982Z,1016.05
2018-10-12T02:39:44.678Z,1016.07
2018-10-12T02:40:44.202Z,1016.03
2018-10-12T02:41:44.634Z,1016.08
2018-10-12T02:42:43.864Z,1016.06
2018-10-12T02:43:43.843Z,1016.05
2018-10-12T02:44:43.812Z,1016.01
2018-10-12T02:45:44.209Z,1016.05
2018-10-12T02:46:44.637Z,1016.07
2018-10-12T02:47:44.638Z,1016.05
2018-10-12T02:48:44.638Z,1016.05
2018-10-12T02:49:43.678Z,1016.07
2018-10-12T02:50:43.681Z,1016.04
2018-10-12T02:51:43.621Z,1016.06
2018-10-12T02:52:43.619Z,1016.05
2018-10-12T02:53:44.136Z,1016.13
2018-10-12T02:54:43.522Z,1016.07
2018-10-12T02:55:43.519Z,1016.06
2018-10-12T02:56:43.692Z,1016.10
2018-10-12T02:57:43.709Z,1016.12
2018-10-12T02:58:43.410Z,1016.07
2018-10-12T02:59:44.199Z,1016.09
2018-10-12T03:00:44.147Z,1016.10
2018-10-12T03:01:44.149Z,1016.09
2018-10-12T03:02:43.342Z,1016.09
2018-10-12T03:03:43.265Z,1016.12
2018-10-12T03:04:43.246Z,1016.11
2018-10-12T03:05:43.214Z,1016.16
2018-10-12T03:06:44.149Z,1016.17
2018-10-12T03:07:43.194Z,1016.12
2018-10-12T03:08:43.648Z,1016.11
2018-10-12T03:09:43.652Z,1016.13
2018-10-12T03:10:43.640Z,1016.10
2018-10-12T03:11:43.040Z,1016.07
2018-10-12T03:12:43.064Z,1016.05
2018-10-12T03:13:42.976Z,1016.08
2018-10-12T03:14:43.640Z,1016.11
2018-10-12T03:15:43.646Z,1016.09
2018-10-12T03:16:43.645Z,1016.12
2018-10-12T03:17:42.906Z,1016.10
2018-10-12T03:18:43.646Z,1016.04
2018-10-12T03:19:42.809Z,1016.13
2018-10-12T03:20:42.820Z,1016.09
2018-10-12T03:21:43.195Z,1016.13
2018-10-12T03:22:42.715Z,1016.13
2018-10-12T03:23:43.652Z,1016.12
2018-10-12T03:24:42.662Z,1016.14
2018-10-12T03:25:42.647Z,1016.13
2018-10-12T03:26:42.650Z,1016.11
2018-10-12T03:27:42.576Z,1016.15
2018-10-12T03:28:42.562Z,1016.16
2018-10-12T03:29:42.692Z,1016.17
2018-10-12T03:30:43.145Z,1016.18
2018-10-12T03:31:42.526Z,1016.19
2018-10-12T03:32:42.433Z,1016.19
2018-10-12T03:33:43.144Z,1016.19
2018-10-12T03:34:42.409Z,1016.18
2018-10-12T03:35:42.342Z,1016.18
2018-10-12T03:36:42.360Z,1016.19
2018-10-12T03:37:43.146Z,1016.25
2018-10-12T03:38:42.276Z,1016.22
2018-10-12T03:39:42.227Z,1016.24
2018-10-12T03:40:42.221Z,1016.25
2018-10-12T03:41:42.741Z,1016.22
2018-10-12T03:42:42.137Z,1016.26
2018-10-12T03:43:42.111Z,1016.23
2018-10-12T03:44:42.159Z,1016.29
2018-10-12T03:45:42.643Z,1016.28
2018-10-12T03:46:42.066Z,1016.31
2018-10-12T03:47:42.651Z,1016.32
2018-10-12T03:48:42.660Z,1016.33
2018-10-12T03:49:42.213Z,1016.33
2018-10-12T03:50:41.904Z,1016.36
2018-10-12T03:51:41.885Z,1016.38
2018-10-12T03:52:41.847Z,1016.33
2018-10-12T03:53:41.839Z,1016.34
2018-10-12T03:54:42.556Z,1016.35
2018-10-12T03:55:42.647Z,1016.30
2018-10-12T03:56:42.646Z,1016.30
2018-10-12T03:57:42.649Z,1016.25
2018-10-12T03:58:41.673Z,1016.27
2018-10-12T03:59:41.683Z,1016.30
2018-10-12T04:00:41.661Z,1016.26
2018-10-12T04:01:42.556Z,1016.33
2018-10-12T04:02:41.588Z,1016.34
2018-10-12T04:03:41.529Z,1016.36
2018-10-12T04:04:41.502Z,1016.36
2018-10-12T04:05:41.513Z,1016.42
2018-10-12T04:06:42.161Z,1016.45
2018-10-12T04:07:41.411Z,1016.44
2018-10-12T04:08:42.149Z,1016.48
2018-10-12T04:09:42.150Z,1016.44
2018-10-12T04:10:41.730Z,1016.40
2018-10-12T04:11:42.152Z,1016.40
2018-10-12T04:12:41.344Z,1016.42
2018-10-12T04:13:41.235Z,1016.40
2018-10-12T04:14:41.774Z,1016.42
2018-10-12T04:15:41.198Z,1016.42
2018-10-12T04:16:41.213Z,1016.48
2018-10-12T04:17:41.122Z,1016.49
2018-10-12T04:18:41.093Z,1016.51
2018-10-12T04:19:41.654Z,1016.50
2018-10-12T04:20:41.649Z,1016.50
2018-10-12T04:21:41.204Z,1016.57
2018-10-12T04:22:41.209Z,1016.58
2018-10-12T04:23:40.956Z,1016.56
2018-10-12T04:24:41.745Z,1016.61
2018-10-12T04:25:41.652Z,1016.57
2018-10-12T04:26:40.922Z,1016.56
2018-10-12T04:27:40.830Z,1016.55
2018-10-12T04:28:40.803Z,1016.57
2018-10-12T04:29:40.772Z,1016.55
2018-10-12T04:30:41.652Z,1016.54
2018-10-12T04:31:40.766Z,1016.55
2018-10-12T04:32:41.653Z,1016.61
2018-10-12T04:33:40.662Z,1016.60
2018-10-12T04:34:41.156Z,1016.60
2018-10-12T04:35:40.610Z,1016.65
2018-10-12T04:36:40.723Z,1016.58
2018-10-12T04:37:40.538Z,1016.60
2018-10-12T04:38:41.160Z,1016.63
2018-10-12T04:39:40.502Z,1016.65
2018-10-12T04:40:41.154Z,1016.65
2018-10-12T04:41:40.463Z,1016.69
2018-10-12T04:42:40.472Z,1016.67
2018-10-12T04:43:40.374Z,1016.68
2018-10-12T04:44:40.700Z,1016.69
2018-10-12T04:45:40.318Z,1016.68
2018-10-12T04:46:40.711Z,1016.70
2018-10-12T04:47:40.281Z,1016.69
2018-10-12T04:48:40.214Z,1016.74
2018-10-12T04:49:40.185Z,1016.82
2018-10-12T04:50:40.152Z,1016.81
2018-10-12T04:51:40.657Z,1016.83
2018-10-12T04:52:40.144Z,1016.83
2018-10-12T04:53:40.783Z,1016.87
2018-10-12T04:54:40.210Z,1016.87
2018-10-12T04:55:40.661Z,1016.86
2018-10-12T04:56:40.666Z,1016.90
2018-10-12T04:57:40.000Z,1016.88
2018-10-12T04:58:39.920Z,1016.89
2018-10-12T04:59:40.228Z,1016.85
2018-10-12T05:00:39.885Z,1016.89
2018-10-12T05:01:40.207Z,1016.91
2018-10-12T05:02:40.212Z,1016.91
2018-10-12T05:03:40.214Z,1016.99
2018-10-12T05:04:40.662Z,1016.95
2018-10-12T05:05:39.714Z,1016.98
2018-10-12T05:06:40.657Z,1016.99
2018-10-12T05:07:39.713Z,1017.04
2018-10-12T05:08:39.626Z,1017.04
2018-10-12T05:09:40.159Z,1017.04
2018-10-12T05:10:39.565Z,1017.01
2018-10-12T05:11:40.212Z,1017.01
2018-10-12T05:12:39.510Z,1016.99
2018-10-12T05:13:39.479Z,1016.97
2018-10-12T05:14:39.713Z,1016.99
2018-10-12T05:15:39.420Z,1016.95
2018-10-12T05:16:39.444Z,1016.98
2018-10-12T05:17:39.377Z,1016.98
2018-10-12T05:18:39.334Z,1016.96
2018-10-12T05:19:39.380Z,1017.03
2018-10-12T05:20:39.277Z,1017.08
2018-10-12T05:21:39.752Z,1017.06
2018-10-12T05:22:40.174Z,1017.10
2018-10-12T05:23:40.161Z,1017.13
2018-10-12T05:24:39.166Z,1017.14
2018-10-12T05:25:39.661Z,1017.14
2018-10-12T05:26:39.139Z,1017.13
2018-10-12T05:27:39.660Z,1017.13
2018-10-12T05:28:39.042Z,1017.15
2018-10-12T05:29:39.668Z,1017.15
2018-10-12T05:30:39.021Z,1017.18
2018-10-12T05:31:38.977Z,1017.20
2018-10-12T05:32:38.953Z,1017.18
2018-10-12T05:33:39.662Z,1017.22
2018-10-12T05:34:39.220Z,1017.20
2018-10-12T05:35:39.665Z,1017.26
2018-10-12T05:36:38.802Z,1017.27
2018-10-12T05:37:38.778Z,1017.27
2018-10-12T05:38:39.668Z,1017.29
2018-10-12T05:39:38.754Z,1017.26
2018-10-12T05:40:39.664Z,1017.32
2018-10-12T05:41:38.658Z,1017.34
2018-10-12T05:42:38.693Z,1017.31
2018-10-12T05:43:38.687Z,1017.29
2018-10-12T05:44:38.614Z,1017.34
2018-10-12T05:45:39.166Z,1017.32
2018-10-12T05:46:39.164Z,1017.36
2018-10-12T05:47:38.483Z,1017.35
2018-10-12T05:48:39.228Z,1017.37
2018-10-12T05:49:38.518Z,1017.35
2018-10-12T05:50:38.394Z,1017.39
2018-10-12T05:51:38.359Z,1017.38
2018-10-12T05:52:38.378Z,1017.42
2018-10-12T05:53:38.302Z,1017.47
2018-10-12T05:54:38.270Z,1017.46
2018-10-12T05:55:38.293Z,1017.46
2018-10-12T05:56:38.256Z,1017.51
2018-10-12T05:57:38.186Z,1017.47
2018-10-12T05:58:38.157Z,1017.46
2018-10-12T05:59:38.133Z,1017.47
2018-10-12T06:00:38.092Z,1017.46
2018-10-12T06:01:38.109Z,1017.48
2018-10-12T06:02:38.049Z,1017.43
2018-10-12T06:03:38.006Z,1017.44
2018-10-12T06:04:38.015Z,1017.41
2018-10-12T06:05:37.988Z,1017.44
2018-10-12T06:06:37.916Z,1017.43
2018-10-12T06:07:38.716Z,1017.45
2018-10-12T06:08:37.857Z,1017.49
2018-10-12T06:09:37.909Z,1017.50
2018-10-12T06:10:37.845Z,1017.54
2018-10-12T06:11:38.306Z,1017.58
2018-10-12T06:12:37.745Z,1017.59
2018-10-12T06:13:37.718Z,1017.66
2018-10-12T06:14:37.684Z,1017.69
2018-10-12T06:15:37.747Z,1017.74
2018-10-12T06:16:37.622Z,1017.69
2018-10-12T06:17:39.182Z,1017.72
2018-10-12T06:18:37.563Z,1017.74
2018-10-12T06:19:37.643Z,1017.73
2018-10-12T06:20:37.508Z,1017.67
2018-10-12T06:21:37.596Z,1017.70
2018-10-12T06:22:37.448Z,1017.63
2018-10-12T06:23:37.422Z,1017.62
2018-10-12T06:24:37.388Z,1017.65
2018-10-12T06:25:37.365Z,1017.64
2018-10-12T06:26:37.416Z,1017.67
2018-10-12T06:27:37.306Z,1017.67
2018-10-12T06:28:37.274Z,1017.65
2018-10-12T06:29:37.243Z,1017.69
2018-10-12T06:30:37.214Z,1017.71
2018-10-12T06:31:37.232Z,1017.72
2018-10-12T06:32:37.208Z,1017.75
2018-10-12T06:33:37.127Z,1017.71
2018-10-12T06:34:37.096Z,1017.72
2018-10-12T06:35:37.077Z,1017.67
2018-10-12T06:36:37.083Z,1017.71
2018-10-12T06:37:37.011Z,1017.72
2018-10-12T06:38:36.997Z,1017.66
2018-10-12T06:39:36.956Z,1017.72
2018-10-12T06:40:36.969Z,1017.71
2018-10-12T06:41:36.963Z,1017.76
2018-10-12T06:42:36.913Z,1017.78
2018-10-12T06:43:36.833Z,1017.78
2018-10-12T06:44:36.869Z,1017.84
2018-10-12T06:45:36.780Z,1017.88
2018-10-12T06:46:36.851Z,1017.85
2018-10-12T06:47:36.761Z,1017.92
2018-10-12T06:48:36.718Z,1017.93
2018-10-12T06:49:36.661Z,1017.97
2018-10-12T06:50:36.635Z,1017.96
2018-10-12T06:51:36.646Z,1017.93
2018-10-12T06:52:36.574Z,1017.97
2018-10-12T06:53:36.589Z,1017.98
2018-10-12T06:54:36.515Z,1018.04
2018-10-12T06:55:36.487Z,1018.05
2018-10-12T06:56:36.732Z,1018.03
2018-10-12T06:57:36.434Z,1018.03
2018-10-12T06:58:36.516Z,1018.00
2018-10-12T06:59:36.392Z,1017.96
2018-10-12T07:00:36.344Z,1017.98
2018-10-12T07:01:36.320Z,1018.00
2018-10-12T07:02:36.290Z,1018.00
2018-10-12T07:03:36.314Z,1018.05
2018-10-12T07:04:36.228Z,1018.05
2018-10-12T07:05:36.223Z,1018.04
2018-10-12T07:06:36.178Z,1018.11
2018-10-12T07:07:36.143Z,1018.12
2018-10-12T07:08:36.154Z,1018.15
2018-10-12T07:09:36.130Z,1018.15
2018-10-12T07:10:36.059Z,1018.22
2018-10-12T07:11:36.034Z,1018.23
2018-10-12T07:12:36.002Z,1018.22
2018-10-12T07:13:36.019Z,1018.28
2018-10-12T07:14:35.942Z,1018.31
2018-10-12T07:15:35.958Z,1018.31
2018-10-12T07:16:35.894Z,1018.33
2018-10-12T07:17:35.871Z,1018.35
2018-10-12T07:18:35.841Z,1018.37
2018-10-12T07:19:36.751Z,1018.40
2018-10-12T07:20:35.824Z,1018.40
2018-10-12T07:21:35.748Z,1018.42
2018-10-12T07:22:35.719Z,1018.46
2018-10-12T07:23:36.682Z,1018.45
2018-10-12T07:24:35.664Z,1018.47
2018-10-12T07:25:35.686Z,1018.49
2018-10-12T07:26:35.606Z,1018.49
2018-10-12T07:27:35.654Z,1018.49
2018-10-12T07:28:35.743Z,1018.55
2018-10-12T07:29:35.529Z,1018.53
2018-10-12T07:30:35.513Z,1018.52
2018-10-12T07:31:35.517Z,1018.59
2018-10-12T07:32:36.181Z,1018.59
2018-10-12T07:33:35.470Z,1018.63
2018-10-12T07:34:35.383Z,1018.64
2018-10-12T07:35:35.356Z,1018.62
2018-10-12T07:36:35.332Z,1018.60
2018-10-12T07:37:35.312Z,1018.53
2018-10-12T07:38:35.736Z,1018.49
2018-10-12T07:39:35.246Z,1018.44
2018-10-12T07:40:35.266Z,1018.44
2018-10-12T07:41:35.189Z,1018.41
2018-10-12T07:42:35.297Z,1018.37
2018-10-12T07:43:35.137Z,1018.39
2018-10-12T07:44:35.168Z,1018.41
2018-10-12T07:45:35.089Z,1018.46
2018-10-12T07:46:35.062Z,1018.49
2018-10-12T07:47:35.028Z,1018.53
2018-10-12T07:48:35.002Z,1018.58
2018-10-12T07:49:35.014Z,1018.60
2018-10-12T07:50:34.945Z,1018.69
2018-10-12T07:51:34.916Z,1018.73
2018-10-12T07:52:34.890Z,1018.81
2018-10-12T07:53:35.017Z,1018.81
2018-10-12T07:54:34.834Z,1018.85
2018-10-12T07:55:34.808Z,1018.84
2018-10-12T07:56:34.779Z,1018.84
2018-10-12T07:57:34.758Z,1018.84
2018-10-12T07:58:34.779Z,1018.80
2018-10-12T07:59:34.698Z,1018.76
2018-10-12T08:00:34.771Z,1018.74
2018-10-12T08:01:34.649Z,1018.75
2018-10-12T08:02:34.753Z,1018.78
2018-10-12T08:03:34.591Z,1018.84
2018-10-12T08:04:34.564Z,1018.91
2018-10-12T08:05:34.544Z,1018.92
2018-10-12T08:06:34.600Z,1018.98
2018-10-12T08:07:34.526Z,1018.94
2018-10-12T08:08:35.190Z,1018.92
2018-10-12T08:09:34.783Z,1018.95
2018-10-12T08:10:34.404Z,1018.97
2018-10-12T08:11:34.380Z,1019.02
2018-10-12T08:12:34.357Z,1019.06
2018-10-12T08:13:35.252Z,1019.06
2018-10-12T08:14:34.330Z,1019.06
2018-10-12T08:15:34.313Z,1019.06
2018-10-12T08:16:35.188Z,1019.08
2018-10-12T08:17:34.230Z,1019.02
2018-10-12T08:18:34.234Z,1019.02
2018-10-12T08:19:34.158Z,1018.99
2018-10-12T08:20:34.285Z,1018.97
2018-10-12T08:21:34.161Z,1019.01
2018-10-12T08:22:34.103Z,1019.06
2018-10-12T08:23:34.056Z,1019.07
2018-10-12T08:24:34.031Z,1019.09
2018-10-12T08:25:34.743Z,1019.17
2018-10-12T08:26:34.015Z,1019.19
2018-10-12T08:27:33.950Z,1019.16
2018-10-12T08:28:33.922Z,1019.13
2018-10-12T08:29:33.939Z,1019.06
2018-10-12T08:30:33.961Z,1019.07
2018-10-12T08:31:34.347Z,1019.02
2018-10-12T08:32:33.829Z,1019.06
2018-10-12T08:33:33.792Z,1019.06
2018-10-12T08:34:33.764Z,1019.14
2018-10-12T08:35:33.837Z,1019.18
2018-10-12T08:36:33.825Z,1019.21
2018-10-12T08:37:33.685Z,1019.26
2018-10-12T08:38:33.665Z,1019.27
2018-10-12T08:39:34.196Z,1019.25
2018-10-12T08:40:33.607Z,1019.25
2018-10-12T08:41:33.647Z,1019.26
2018-10-12T08:42:33.564Z,1019.25
2018-10-12T08:43:33.531Z,1019.32
2018-10-12T08:44:33.505Z,1019.34
2018-10-12T08:45:34.266Z,1019.38
2018-10-12T08:46:33.492Z,1019.35
2018-10-12T08:47:33.469Z,1019.39
2018-10-12T08:48:33.419Z,1019.40
2018-10-12T08:49:33.374Z,1019.36
2018-10-12T08:50:33.346Z,1019.35
2018-10-12T08:51:33.319Z,1019.35
2018-10-12T08:52:33.387Z,1019.33
2018-10-12T08:53:33.270Z,1019.36
2018-10-12T08:54:33.247Z,1019.35
2018-10-12T08:55:33.287Z,1019.36
2018-10-12T08:56:33.199Z,1019.32
2018-10-12T08:57:33.219Z,1019.32
2018-10-12T08:58:33.154Z,1019.36
2018-10-12T08:59:33.119Z,1019.36
2018-10-12T09:00:33.091Z,1019.38
2018-10-12T09:01:33.102Z,1019.37
2018-10-12T09:02:33.051Z,1019.35
2018-10-12T09:03:33.014Z,1019.39
2018-10-12T09:04:33.032Z,1019.41
2018-10-12T09:05:32.976Z,1019.39
2018-10-12T09:06:32.982Z,1019.41
2018-10-12T09:07:32.922Z,1019.37
2018-10-12T09:08:32.884Z,1019.36
2018-10-12T09:09:33.716Z,1019.38
2018-10-12T09:10:32.850Z,1019.38
2018-10-12T09:11:33.265Z,1019.37
2018-10-12T09:12:32.793Z,1019.34
2018-10-12T09:13:32.762Z,1019.38
2018-10-12T09:14:32.734Z,1019.34
2018-10-12T09:15:32.758Z,1019.37
2018-10-12T09:16:33.205Z,1019.36
2018-10-12T09:17:32.659Z,1019.35
2018-10-12T09:18:32.681Z,1019.39
2018-10-12T09:19:32.610Z,1019.38
2018-10-12T09:20:32.855Z,1019.39
2018-10-12T09:21:32.559Z,1019.40
2018-10-12T09:22:32.532Z,1019.40
2018-10-12T09:23:32.509Z,1019.49
2018-10-12T09:24:32.483Z,1019.48
2018-10-12T09:25:32.505Z,1019.57
2018-10-12T09:26:32.437Z,1019.58
2018-10-12T09:27:32.408Z,1019.55
2018-10-12T09:28:32.383Z,1019.59
2018-10-12T09:29:32.359Z,1019.62
2018-10-12T09:30:32.373Z,1019.70
2018-10-12T09:31:32.317Z,1019.65
2018-10-12T09:32:32.284Z,1019.67
2018-10-12T09:33:32.260Z,1019.71
2018-10-12T09:34:32.237Z,1019.71
2018-10-12T09:35:32.254Z,1019.69
2018-10-12T09:36:32.272Z,1019.68
2018-10-12T09:37:32.162Z,1019.69
2018-10-12T09:38:32.148Z,1019.69
2018-10-12T09:39:32.111Z,1019.69
2018-10-12T09:40:32.299Z,1019.69
2018-10-12T09:41:32.064Z,1019.71
2018-10-12T09:42:32.038Z,1019.68
2018-10-12T09:43:32.018Z,1019.71
2018-10-12T09:44:31.992Z,1019.71
2018-10-12T09:45:32.020Z,1019.65
2018-10-12T09:46:31.950Z,1019.66
2018-10-12T09:47:32.720Z,1019.63
2018-10-12T09:48:31.892Z,1019.61
2018-10-12T09:49:31.888Z,1019.63
2018-10-12T09:50:31.970Z,1019.56
2018-10-12T09:51:31.825Z,1019.55
2018-10-12T09:52:31.796Z,1019.56
2018-10-12T09:53:31.794Z,1019.52
2018-10-12T09:54:31.819Z,1019.54
2018-10-12T09:55:31.747Z,1019.53
2018-10-12T09:56:32.222Z,1019.51
2018-10-12T09:57:31.687Z,1019.51
2018-10-12T09:58:32.215Z,1019.51
2018-10-12T09:59:31.778Z,1019.55
2018-10-12T10:00:31.762Z,1019.53
2018-10-12T10:01:32.215Z,1019.50
2018-10-12T10:02:32.213Z,1019.45
2018-10-12T10:03:31.530Z,1019.41
2018-10-12T10:04:31.506Z,1019.38
2018-10-12T10:05:31.527Z,1019.34
2018-10-12T10:06:31.463Z,1019.32
2018-10-12T10:07:31.486Z,1019.27
2018-10-12T10:08:31.601Z,1019.28
2018-10-12T10:09:31.399Z,1019.26
2018-10-12T10:10:31.408Z,1019.28
2018-10-12T10:11:31.343Z,1019.30
2018-10-12T10:12:31.355Z,1019.36
2018-10-12T10:13:31.291Z,1019.41
2018-10-12T10:14:31.266Z,1019.44
2018-10-12T10:15:31.340Z,1019.50
2018-10-12T10:16:31.226Z,1019.59
2018-10-12T10:17:31.195Z,1019.62
2018-10-12T10:18:31.172Z,1019.66
2018-10-12T10:19:31.159Z,1019.68
2018-10-12T10:20:31.163Z,1019.69
2018-10-12T10:21:31.156Z,1019.64
2018-10-12T10:22:31.120Z,1019.60
2018-10-12T10:23:31.101Z,1019.63
2018-10-12T10:24:31.034Z,1019.55
2018-10-12T10:25:31.007Z,1019.58
2018-10-12T10:26:31.049Z,1019.54
2018-10-12T10:27:30.960Z,1019.54
2018-10-12T10:28:30.980Z,1019.50
2018-10-12T10:29:30.915Z,1019.50
2018-10-12T10:30:30.893Z,1019.49
2018-10-12T10:31:30.865Z,1019.46
2018-10-12T10:32:30.844Z,1019.44
2018-10-12T10:33:30.868Z,1019.43
2018-10-12T10:34:30.799Z,1019.42
2018-10-12T10:35:30.805Z,1019.39
2018-10-12T10:36:30.752Z,1019.39
2018-10-12T10:37:30.732Z,1019.41
2018-10-12T10:38:30.762Z,1019.41
2018-10-12T10:39:30.683Z,1019.39
2018-10-12T10:40:30.657Z,1019.45
2018-10-12T10:41:30.638Z,1019.42
2018-10-12T10:42:30.678Z,1019.45
2018-10-12T10:43:30.629Z,1019.47
2018-10-12T10:44:30.567Z,1019.51
2018-10-12T10:45:30.563Z,1019.48
2018-10-12T10:46:30.535Z,1019.49
2018-10-12T10:47:30.515Z,1019.49
2018-10-12T10:48:30.534Z,1019.51
2018-10-12T10:49:30.523Z,1019.51
2018-10-12T10:50:30.436Z,1019.47
2018-10-12T10:51:30.404Z,1019.46
2018-10-12T10:52:30.430Z,1019.51
2018-10-12T10:53:30.413Z,1019.50
2018-10-12T10:54:30.340Z,1019.57
2018-10-12T10:55:30.356Z,1019.59
2018-10-12T10:56:31.225Z,1019.63
2018-10-12T10:57:30.268Z,1019.63
2018-10-12T10:58:30.283Z,1019.63
2018-10-12T10:59:30.727Z,1019.59
2018-10-12T11:00:30.238Z,1019.59
2018-10-12T11:01:30.175Z,1019.60
2018-10-12T11:02:30.189Z,1019.60
2018-10-12T11:03:30.130Z,1019.60
2018-10-12T11:04:30.163Z,1019.55
2018-10-12T11:05:30.115Z,1019.59
2018-10-12T11:06:30.087Z,1019.57
2018-10-12T11:07:30.040Z,1019.53
2018-10-12T11:08:30.019Z,1019.50
2018-10-12T11:09:30.036Z,1019.51
2018-10-12T11:10:30.025Z,1019.51
2018-10-12T11:11:29.952Z,1019.48
2018-10-12T11:12:30.092Z,1019.49
2018-10-12T11:13:29.907Z,1019.48
2018-10-12T11:14:30.747Z,1019.52
2018-10-12T11:15:29.907Z,1019.51
2018-10-12T11:16:29.841Z,1019.51
2018-10-12T11:17:29.819Z,1019.52
2018-10-12T11:18:29.801Z,1019.53
2018-10-12T11:19:29.786Z,1019.55
2018-10-12T11:20:29.794Z,1019.56
2018-10-12T11:21:29.742Z,1019.55
2018-10-12T11:22:29.755Z,1019.55
2018-10-12T11:23:29.736Z,1019.58
2018-10-12T11:24:29.774Z,1019.57
2018-10-12T11:25:29.642Z,1019.55
2018-10-12T11:26:29.707Z,1019.57
2018-10-12T11:27:29.600Z,1019.54
2018-10-12T11:28:29.577Z,1019.57
2018-10-12T11:29:29.549Z,1019.53
2018-10-12T11:30:29.579Z,1019.50
2018-10-12T11:31:29.505Z,1019.52
2018-10-12T11:32:29.495Z,1019.51
2018-10-12T11:33:29.472Z,1019.51
2018-10-12T11:34:30.145Z,1019.53
2018-10-12T11:35:29.462Z,1019.48
2018-10-12T11:36:29.396Z,1019.49
2018-10-12T11:37:29.374Z,1019.49
2018-10-12T11:38:29.413Z,1019.51
2018-10-12T11:39:29.366Z,1019.50
2018-10-12T11:40:29.310Z,1019.55
2018-10-12T11:41:29.342Z,1019.53
2018-10-12T11:42:29.263Z,1019.54
2018-10-12T11:43:29.242Z,1019.54
2018-10-12T11:44:29.220Z,1019.55
2018-10-12T11:45:29.270Z,1019.54
2018-10-12T11:46:29.226Z,1019.56
2018-10-12T11:47:29.746Z,1019.56
2018-10-12T11:48:29.186Z,1019.56
2018-10-12T11:49:29.110Z,1019.57
2018-10-12T11:50:29.094Z,1019.57
2018-10-12T11:51:29.072Z,1019.59
2018-10-12T11:52:29.651Z,1019.56
2018-10-12T11:53:29.069Z,1019.60
2018-10-12T11:54:29.018Z,1019.62
2018-10-12T11:55:28.982Z,1019.60
2018-10-12T11:56:28.961Z,1019.58
2018-10-12T11:57:28.985Z,1019.53
2018-10-12T11:58:28.915Z,1019.55
2018-10-12T11:59:28.937Z,1019.53
2018-10-12T12:00:28.872Z,1019.52
2018-10-12T12:01:28.853Z,1019.52
2018-10-12T12:02:28.892Z,1019.52
2018-10-12T12:03:28.812Z,1019.52
2018-10-12T12:04:28.787Z,1019.52
2018-10-12T12:05:28.768Z,1019.53